Thursday, June 21, 2018, 6:32 AM EDT
Back to Local

KDAA, Fort Belvoir

Location: Fort Belvoir, VA, United States Lat: 38.717
Local Time: 6:32 AM EDT (10:32 GMT) Lon: -77.183
Time Zone: US/Eastern Elev: 68 ft

Show me the last for .
Show Decoded

2018-06-21 05:56 METAR KDAA 210956Z AUTO 00000KT 10SM BKN050 21/21 A2975 RMK AO2 SLP077 T02070207
                 $ =
2018-06-21 04:56 METAR KDAA 210856Z AUTO 00000KT 5SM BR BKN150 21/21 A2973 RMK AO2 SLP070
                 T02050205 56017 $ =
2018-06-21 03:56 METAR KDAA 210756Z AUTO 00000KT 10SM FEW150 21/21 A2973 RMK AO2 SLP070 T02070207
                 $ =
2018-06-21 03:41 METAR KDAA 210741Z AUTO 00000KT 5SM BR FEW150 21/21 A2974 RMK AO2 SLP074 $ =
2018-06-21 03:36 METAR KDAA 210736Z AUTO 00000KT 2 3/4SM BR FEW150 21/21 A2974 RMK AO2 VIS 2
                 3/4V10 SLP074 $ =
2018-06-21 03:06 METAR KDAA 210706Z AUTO 00000KT 3SM BR FEW220 21/21 A2974 RMK AO2 SLP074 $ =
2018-06-21 02:56 METAR KDAA 210656Z AUTO 00000KT 5SM BR FEW220 21/21 A2975 RMK AO2 SLP077
                 T02100208 $ =
2018-06-21 02:01 METAR KDAA 210601Z AUTO 00000KT 10SM SCT007 BKN170 22/21 A2978 RMK AO2 SLP087 $
                 =
2018-06-21 01:56 METAR KDAA 210556Z AUTO 00000KT 10SM BKN007 BKN090 BKN160 22/21 A2978 RMK AO2
                 CIG 007V085 BKN007 V SCT SLP087 60015 T02190212 10253 20217 55008 $ =
2018-06-21 01:55 METAR KDAA 210555Z AUTO 00000KT 10SM BKN007 BKN085 BKN160 22/21 A2978 RMK AO2
                 CIG 007V085 BKN007 V SCT SLP087 $ =
2018-06-21 01:40 METAR KDAA 210540Z AUTO 29004KT 10SM FEW006 SCT085 SCT160 22/21 A2978 RMK AO2
                 SLP087 $ =
2018-06-21 00:56 METAR KDAA 210456Z AUTO 29003KT 10SM SCT140 22/21 A2979 RMK AO2 SLP091 T02200213
                 402950202 $ =
2018-06-20 23:56 METAR KDAA 210356Z AUTO 00000KT 10SM CLR 22/21 A2978 RMK AO2
                 RAB0256E0257DZB0259E09 SLP087 P0000 T02170212 $ =
2018-06-20 22:56 METAR KDAA 210256Z AUTO 27003KT 10SM CLR 22/22 A2980 RMK AO2
                 RAE06DZB14E15RAB15E25DZB25E47RAB47 SLP094 P0000 60015 T02210216 55003 $ =
2018-06-20 22:08 METAR KDAA 210208Z AUTO 00000KT 10SM FEW007 22/21 A2979 RMK AO2 RAE06 SLP091 $ =
2018-06-20 22:06 METAR KDAA 210206Z AUTO 00000KT 10SM FEW020 22/21 A2979 RMK AO2 RAE06 SLP091 $ =
2018-06-20 21:56 METAR KDAA 210156Z AUTO 00000KT 10SM -RA SCT025 22/21 A2980 RMK AO2 SLP094 P0009
                 T02200211 $ =
2018-06-20 21:53 METAR KDAA 210153Z AUTO 00000KT 10SM -RA SCT025 22/21 A2979 RMK AO2 SLP091 $ =
2018-06-20 21:38 METAR KDAA 210138Z AUTO 00000KT 9SM -RA BKN029 23/21 A2980 RMK AO2 LTG DSNT E-SE
                 SLP094 $ =
2018-06-20 21:13 METAR KDAA 210113Z AUTO 00000KT 8SM RA FEW055 23/22 A2980 RMK AO2 LTG DSNT SE-S
                 SLP094 $ =
2018-06-20 21:02 METAR KDAA 210102Z AUTO 31004KT 9SM CLR 23/22 A2979 RMK AO2 LTG DSNT SE-S SLP091
                 $ =
2018-06-20 20:56 METAR KDAA 210056Z AUTO 28003KT 10SM RA FEW029 23/22 A2979 RMK AO2 LTG DSNT SE-S
                 DZB2359E05RAB05E15RAB17 SLP091 P0006 T02270215 $ =
2018-06-20 20:17 METAR KDAA 210017Z AUTO 30015G19KT 10SM -RA FEW022 SCT041 SCT080 25/22 A2981 RMK
                 AO2 DZB2359E05RAB05E15RAB17 SLP097 $ =
2018-06-20 20:15 METAR KDAA 210015Z AUTO 30012G19KT 10SM FEW022 SCT041 SCT080 25/22 A2981 RMK AO2
                 DZB2359E05RAB05E15 SLP097 $ =
2018-06-20 19:59 METAR KDAA 202359Z AUTO 30012KT 10SM -DZ FEW019 SCT024 SCT038 SCT070 BKN090
                 BKN160 25/23 A2981 RMK AO2 DZB59 SLP097 $ =
2018-06-20 19:56 METAR KDAA 202356Z AUTO 31012KT 10SM SCT022 SCT070 SCT090 BKN160 25/23 A2981 RMK
                 AO2 SLP097 60002 T02530229 10295 20242 53007 $ =
2018-06-20 18:56 METAR KDAA 202256Z AUTO 00000KT 10SM CLR 26/23 A2977 RMK AO2 RAE35DZB35E37
                 SLP084 P0001 T02620232 $ =
2018-06-20 17:57 METAR KDAA 202157Z AUTO 00000KT 10SM CLR 24/24 A2977 RMK AO2 SLP084 $ =
2018-06-20 17:56 METAR KDAA 202156Z AUTO 00000KT 10SM -RA FEW011 24/24 A2977 RMK AO2
                 DZB12E19RAB19 SLP084 P0001 T02440237 $ =
2018-06-20 17:26 METAR KDAA 202126Z AUTO 00000KT 10SM -RA FEW012 25/24 A2978 RMK AO2
                 DZB12E19RAB19 SLP087 $ =
2018-06-20 16:56 METAR KDAA 202056Z AUTO 00000KT 10SM CLR 25/23 A2979 RMK AO2 RAB33E43DZB43E44
                 SLP091 P0000 60000 T02450231 57016 $ =
2018-06-20 15:56 METAR KDAA 201956Z AUTO 00000KT 10SM CLR 27/23 A2979 RMK AO2 LTG DSNT W SLP091
                 T02690229 $ =
2018-06-20 14:56 METAR KDAA 201856Z AUTO 18004KT 10SM CLR 29/19 A2982 RMK AO2 SLP101 T02900193 $
                 =
2018-06-20 13:56 METAR KDAA 201756Z AUTO 00000KT 10SM FEW095 FEW130 29/17 A2984 RMK AO2 DZB21E30
                 SLP107 P0000 60000 T02870169 10287 20228 58015 $ =
2018-06-20 13:30 METAR KDAA 201730Z AUTO 00000KT 10SM FEW100 FEW210 28/19 A2985 RMK AO2 DZB21E30
                 SLP111 $ =
2018-06-20 13:25 METAR KDAA 201725Z AUTO 00000KT 10SM -DZ FEW110 27/18 A2985 RMK AO2 DZB21 SLP111
                 $ =
2018-06-20 13:24 METAR KDAA 201724Z AUTO 00000KT 10SM CLR 27/18 A2985 RMK AO2 DZB21 SLP111 $ =
2018-06-20 13:21 METAR KDAA 201721Z AUTO 00000KT 10SM -DZ FEW110 27/18 A2985 RMK AO2 DZB21 SLP111
                 $ =
2018-06-20 12:56 METAR KDAA 201656Z AUTO 00000KT 10SM FEW120 FEW190 27/18 A2986 RMK AO2 SLP114
                 T02740184 $ =
2018-06-20 11:56 METAR KDAA 201556Z AUTO 00000KT 10SM FEW140 FEW170 27/19 A2988 RMK AO2 SLP121
                 T02660192 $ =
2018-06-20 10:56 METAR KDAA 201456Z AUTO 00000KT 10SM SCT075 26/18 A2988 RMK AO2 SLP121 60000
                 T02600179 58003 $ =
2018-06-20 09:56 METAR KDAA 201356Z AUTO 00000KT 10SM SCT070 25/18 A2989 RMK AO2 DZE1256DZB03E04
                 SLP124 P0000 T02450184 $ =
2018-06-20 09:04 METAR KDAA 201304Z AUTO 00000KT 10SM FEW041 BKN070 24/19 A2989 RMK AO2
                 DZE1256DZB03E04 SLP124 $ =
2018-06-20 09:03 METAR KDAA 201303Z AUTO 00000KT 10SM -DZ FEW041 BKN070 24/19 A2989 RMK AO2
                 DZE1256DZB03 SLP124 $ =
2018-06-20 08:57 METAR KDAA 201257Z AUTO 00000KT 10SM BKN070 24/18 A2989 RMK AO2 DZE56 SLP124 $ =
2018-06-20 08:56 METAR KDAA 201256Z AUTO 00000KT 10SM -DZ BKN070 24/18 A2989 RMK AO2
                 DZB05E15DZB20E27DZB42E45DZB46E52DZB54 SLP124 P0000 T02410176 $ =
2018-06-20 08:54 METAR KDAA 201254Z AUTO 00000KT 10SM -DZ BKN070 24/18 A2989 RMK AO2
                 DZB05E15DZB20E27DZB42E45DZB46E52DZB54 SLP124 $ =
2018-06-20 08:52 METAR KDAA 201252Z AUTO 00000KT 10SM BKN070 24/19 A2989 RMK AO2
                 DZB05E15DZB20E27DZB42E45DZB46E52 SLP124 $ =
2018-06-20 08:46 METAR KDAA 201246Z AUTO 00000KT 10SM -DZ BKN070 24/19 A2989 RMK AO2
                 DZB05E15DZB20E27DZB42E45DZB46 SLP124 $ =
2018-06-20 08:45 METAR KDAA 201245Z AUTO 00000KT 10SM BKN070 24/19 A2989 RMK AO2
                 DZB05E15DZB20E27DZB42E45 SLP124 $ =
2018-06-20 08:42 METAR KDAA 201242Z AUTO 00000KT 10SM -DZ BKN070 24/19 A2989 RMK AO2
                 DZB05E15DZB20E27DZB42 SLP124 $ =
2018-06-20 08:21 METAR KDAA 201221Z AUTO 00000KT 10SM CLR 23/20 A2989 RMK AO2 DZB05E15DZB20
                 SLP124 $ =
2018-06-20 08:20 METAR KDAA 201220Z AUTO 00000KT 10SM -DZ FEW150 23/20 A2989 RMK AO2
                 DZB05E15DZB20 SLP124 $ =
2018-06-20 08:15 METAR KDAA 201215Z AUTO 00000KT 10SM FEW150 24/18 A2989 RMK AO2 DZB05E15 SLP124
                 $ =
2018-06-20 08:05 METAR KDAA 201205Z AUTO 00000KT 10SM -DZ FEW140 23/19 A2989 RMK AO2 DZB05 SLP124
                 $ =
2018-06-20 07:56 METAR KDAA 201156Z AUTO 00000KT 10SM FEW055 24/18 A2989 RMK AO2 SLP124 70089
                 T02400179 10240 20202 52008 $ =
2018-06-20 06:56 METAR KDAA 201056Z AUTO 00000KT 10SM SCT049 OVC070 21/21 A2989 RMK AO2 SLP124
                 T02120207 $ =

Support USWX by starting your Amazon purchase here.